sensor_id;sensor_type;location;lat;lon;timestamp;P1;durP1;ratioP1;P2;durP2;ratioP2
43226;SDS011;28839;52.404;9.808;2022-08-11T00:00:33;2.62;;;1.87;;
43226;SDS011;28839;52.404;9.808;2022-08-11T00:07:29;7.53;;;2.20;;
43226;SDS011;28839;52.404;9.808;2022-08-11T00:14:24;2.87;;;2.08;;
43226;SDS011;28839;52.404;9.808;2022-08-11T00:21:21;4.40;;;2.65;;
43226;SDS011;28839;52.404;9.808;2022-08-11T00:28:24;3.33;;;2.30;;
43226;SDS011;28839;52.404;9.808;2022-08-11T00:35:21;4.50;;;2.42;;
43226;SDS011;28839;52.404;9.808;2022-08-11T00:42:22;2.95;;;2.40;;
43226;SDS011;28839;52.404;9.808;2022-08-11T00:49:24;5.07;;;2.50;;
43226;SDS011;28839;52.404;9.808;2022-08-11T01:04:19;6.28;;;2.60;;
43226;SDS011;28839;52.404;9.808;2022-08-11T01:26:42;3.25;;;2.70;;
43226;SDS011;28839;52.404;9.808;2022-08-11T01:41:39;3.08;;;2.72;;
43226;SDS011;28839;52.404;9.808;2022-08-11T01:49:02;3.22;;;2.87;;
43226;SDS011;28839;52.404;9.808;2022-08-11T01:56:09;3.47;;;2.55;;
43226;SDS011;28839;52.404;9.808;2022-08-11T02:03:16;3.45;;;3.03;;
43226;SDS011;28839;52.404;9.808;2022-08-11T02:10:18;3.33;;;2.80;;
43226;SDS011;28839;52.404;9.808;2022-08-11T02:17:38;3.65;;;2.80;;
43226;SDS011;28839;52.404;9.808;2022-08-11T02:24:43;3.42;;;2.72;;
43226;SDS011;28839;52.404;9.808;2022-08-11T02:31:44;3.72;;;2.85;;
43226;SDS011;28839;52.404;9.808;2022-08-11T02:39:16;6.40;;;2.67;;
43226;SDS011;28839;52.404;9.808;2022-08-11T02:46:17;5.37;;;3.00;;
43226;SDS011;28839;52.404;9.808;2022-08-11T02:53:16;6.45;;;3.17;;
43226;SDS011;28839;52.404;9.808;2022-08-11T03:00:17;6.45;;;3.45;;
43226;SDS011;28839;52.404;9.808;2022-08-11T03:07:15;4.97;;;3.17;;
43226;SDS011;28839;52.404;9.808;2022-08-11T03:14:16;3.60;;;2.85;;
43226;SDS011;28839;52.404;9.808;2022-08-11T03:21:33;5.82;;;3.20;;
43226;SDS011;28839;52.404;9.808;2022-08-11T03:28:38;4.05;;;3.37;;
43226;SDS011;28839;52.404;9.808;2022-08-11T03:35:39;3.90;;;3.37;;
43226;SDS011;28839;52.404;9.808;2022-08-11T03:42:41;17.05;;;3.67;;
43226;SDS011;28839;52.404;9.808;2022-08-11T03:49:46;6.82;;;3.53;;
43226;SDS011;28839;52.404;9.808;2022-08-11T03:57:14;4.47;;;4.07;;
43226;SDS011;28839;52.404;9.808;2022-08-11T04:19:38;6.03;;;3.90;;
43226;SDS011;28839;52.404;9.808;2022-08-11T04:26:59;8.68;;;3.70;;
43226;SDS011;28839;52.404;9.808;2022-08-11T04:41:52;3.80;;;3.37;;
43226;SDS011;28839;52.404;9.808;2022-08-11T04:49:33;7.15;;;3.80;;
43226;SDS011;28839;52.404;9.808;2022-08-11T04:57:03;5.68;;;4.03;;
43226;SDS011;28839;52.404;9.808;2022-08-11T05:04:35;6.43;;;3.67;;
43226;SDS011;28839;52.404;9.808;2022-08-11T05:12:19;9.57;;;3.95;;
43226;SDS011;28839;52.404;9.808;2022-08-11T05:19:22;11.90;;;4.28;;
43226;SDS011;28839;52.404;9.808;2022-08-11T05:26:37;4.20;;;3.62;;
43226;SDS011;28839;52.404;9.808;2022-08-11T05:33:55;6.75;;;3.50;;
43226;SDS011;28839;52.404;9.808;2022-08-11T05:41:09;10.75;;;3.90;;
43226;SDS011;28839;52.404;9.808;2022-08-11T05:48:23;6.40;;;3.85;;
43226;SDS011;28839;52.404;9.808;2022-08-11T05:55:42;4.35;;;3.28;;
43226;SDS011;28839;52.404;9.808;2022-08-11T06:09:53;6.35;;;3.75;;
43226;SDS011;28839;52.404;9.808;2022-08-11T06:16:48;8.25;;;3.30;;
43226;SDS011;28839;52.404;9.808;2022-08-11T06:23:45;6.03;;;3.60;;
43226;SDS011;28839;52.404;9.808;2022-08-11T06:30:41;7.00;;;3.33;;
43226;SDS011;28839;52.404;9.808;2022-08-11T06:37:44;7.80;;;3.20;;
43226;SDS011;28839;52.404;9.808;2022-08-11T06:44:52;5.93;;;3.33;;
43226;SDS011;28839;52.404;9.808;2022-08-11T06:51:58;5.30;;;3.53;;
43226;SDS011;28839;52.404;9.808;2022-08-11T06:58:55;7.53;;;3.47;;
43226;SDS011;28839;52.404;9.808;2022-08-11T07:06:13;8.07;;;3.20;;
43226;SDS011;28839;52.404;9.808;2022-08-11T07:13:15;4.30;;;2.67;;
43226;SDS011;28839;52.404;9.808;2022-08-11T07:20:29;6.03;;;2.87;;
43226;SDS011;28839;52.404;9.808;2022-08-11T07:27:41;5.00;;;2.58;;
43226;SDS011;28839;52.404;9.808;2022-08-11T07:34:57;5.22;;;2.90;;
43226;SDS011;28839;52.404;9.808;2022-08-11T07:41:59;5.57;;;2.62;;
43226;SDS011;28839;52.404;9.808;2022-08-11T07:48:58;7.50;;;2.55;;
43226;SDS011;28839;52.404;9.808;2022-08-11T07:56:13;7.30;;;3.50;;
43226;SDS011;28839;52.404;9.808;2022-08-11T08:03:10;6.28;;;2.95;;
43226;SDS011;28839;52.404;9.808;2022-08-11T08:10:22;5.22;;;3.10;;
43226;SDS011;28839;52.404;9.808;2022-08-11T08:17:35;8.67;;;3.27;;
43226;SDS011;28839;52.404;9.808;2022-08-11T08:24:48;14.70;;;3.60;;
43226;SDS011;28839;52.404;9.808;2022-08-11T08:31:42;12.10;;;3.30;;
43226;SDS011;28839;52.404;9.808;2022-08-11T08:38:39;9.35;;;3.03;;
43226;SDS011;28839;52.404;9.808;2022-08-11T08:45:34;8.23;;;2.95;;
43226;SDS011;28839;52.404;9.808;2022-08-11T08:52:32;5.18;;;3.00;;
43226;SDS011;28839;52.404;9.808;2022-08-11T08:59:35;6.55;;;2.92;;
43226;SDS011;28839;52.404;9.808;2022-08-11T09:06:32;7.62;;;2.60;;
43226;SDS011;28839;52.404;9.808;2022-08-11T09:13:30;7.35;;;2.60;;
43226;SDS011;28839;52.404;9.808;2022-08-11T09:20:27;5.32;;;2.37;;
43226;SDS011;28839;52.404;9.808;2022-08-11T09:27:25;5.15;;;2.45;;
43226;SDS011;28839;52.404;9.808;2022-08-11T09:34:19;3.55;;;2.25;;
43226;SDS011;28839;52.404;9.808;2022-08-11T09:41:15;6.03;;;2.15;;
43226;SDS011;28839;52.404;9.808;2022-08-11T09:48:10;3.25;;;2.15;;
43226;SDS011;28839;52.404;9.808;2022-08-11T09:55:04;8.65;;;2.05;;
43226;SDS011;28839;52.404;9.808;2022-08-11T10:02:03;5.00;;;1.90;;
43226;SDS011;28839;52.404;9.808;2022-08-11T10:08:59;4.55;;;2.20;;
43226;SDS011;28839;52.404;9.808;2022-08-11T10:15:57;3.08;;;1.87;;
43226;SDS011;28839;52.404;9.808;2022-08-11T10:22:55;5.00;;;1.90;;
43226;SDS011;28839;52.404;9.808;2022-08-11T10:30:08;3.53;;;2.10;;
43226;SDS011;28839;52.404;9.808;2022-08-11T10:37:21;3.53;;;2.17;;
43226;SDS011;28839;52.404;9.808;2022-08-11T10:44:17;3.62;;;1.85;;
43226;SDS011;28839;52.404;9.808;2022-08-11T10:51:12;5.93;;;2.50;;
43226;SDS011;28839;52.404;9.808;2022-08-11T10:58:07;4.85;;;1.90;;
43226;SDS011;28839;52.404;9.808;2022-08-11T11:05:22;4.72;;;1.87;;
43226;SDS011;28839;52.404;9.808;2022-08-11T11:12:22;2.65;;;1.67;;
43226;SDS011;28839;52.404;9.808;2022-08-11T11:19:37;6.03;;;2.10;;
43226;SDS011;28839;52.404;9.808;2022-08-11T11:26:39;4.72;;;2.28;;
43226;SDS011;28839;52.404;9.808;2022-08-11T11:33:51;3.65;;;2.25;;
43226;SDS011;28839;52.404;9.808;2022-08-11T11:41:02;2.33;;;1.90;;
43226;SDS011;28839;52.404;9.808;2022-08-11T11:48:16;4.90;;;2.45;;
43226;SDS011;28839;52.404;9.808;2022-08-11T11:55:10;6.15;;;2.30;;
43226;SDS011;28839;52.404;9.808;2022-08-11T12:02:04;5.57;;;2.12;;
43226;SDS011;28839;52.404;9.808;2022-08-11T12:09:00;3.03;;;1.87;;
43226;SDS011;28839;52.404;9.808;2022-08-11T12:15:55;4.82;;;2.10;;
43226;SDS011;28839;52.404;9.808;2022-08-11T12:22:54;5.00;;;2.37;;
43226;SDS011;28839;52.404;9.808;2022-08-11T12:30:09;7.73;;;2.03;;
43226;SDS011;28839;52.404;9.808;2022-08-11T12:37:03;6.35;;;2.20;;
43226;SDS011;28839;52.404;9.808;2022-08-11T12:44:02;2.80;;;1.85;;
43226;SDS011;28839;52.404;9.808;2022-08-11T12:51:31;3.10;;;2.00;;
43226;SDS011;28839;52.404;9.808;2022-08-11T12:58:44;4.20;;;2.25;;
43226;SDS011;28839;52.404;9.808;2022-08-11T13:05:43;3.80;;;1.90;;
43226;SDS011;28839;52.404;9.808;2022-08-11T13:12:39;3.45;;;2.17;;
43226;SDS011;28839;52.404;9.808;2022-08-11T13:19:43;5.60;;;2.03;;
43226;SDS011;28839;52.404;9.808;2022-08-11T13:26:39;5.80;;;2.78;;
43226;SDS011;28839;52.404;9.808;2022-08-11T13:33:36;3.28;;;2.15;;
43226;SDS011;28839;52.404;9.808;2022-08-11T13:40:34;2.72;;;1.77;;
43226;SDS011;28839;52.404;9.808;2022-08-11T13:47:28;6.18;;;2.00;;
43226;SDS011;28839;52.404;9.808;2022-08-11T13:54:26;3.62;;;2.03;;
43226;SDS011;28839;52.404;9.808;2022-08-11T14:01:22;4.07;;;2.30;;
43226;SDS011;28839;52.404;9.808;2022-08-11T14:08:21;5.40;;;2.30;;
43226;SDS011;28839;52.404;9.808;2022-08-11T14:15:21;3.92;;;2.20;;
43226;SDS011;28839;52.404;9.808;2022-08-11T14:22:16;5.32;;;2.28;;
43226;SDS011;28839;52.404;9.808;2022-08-11T14:29:13;5.87;;;2.25;;
43226;SDS011;28839;52.404;9.808;2022-08-11T14:36:10;4.95;;;2.28;;
43226;SDS011;28839;52.404;9.808;2022-08-11T14:43:05;5.75;;;2.30;;
43226;SDS011;28839;52.404;9.808;2022-08-11T14:50:17;7.12;;;2.30;;
43226;SDS011;28839;52.404;9.808;2022-08-11T14:57:16;4.20;;;2.00;;
43226;SDS011;28839;52.404;9.808;2022-08-11T15:04:12;4.70;;;2.10;;
43226;SDS011;28839;52.404;9.808;2022-08-11T15:11:07;4.10;;;2.35;;
43226;SDS011;28839;52.404;9.808;2022-08-11T15:18:24;5.62;;;2.28;;
43226;SDS011;28839;52.404;9.808;2022-08-11T15:25:20;5.10;;;2.40;;
43226;SDS011;28839;52.404;9.808;2022-08-11T15:32:19;13.48;;;2.40;;
43226;SDS011;28839;52.404;9.808;2022-08-11T15:39:32;13.02;;;2.47;;
43226;SDS011;28839;52.404;9.808;2022-08-11T15:46:49;3.92;;;1.85;;
43226;SDS011;28839;52.404;9.808;2022-08-11T15:53:49;7.05;;;2.17;;
43226;SDS011;28839;52.404;9.808;2022-08-11T16:00:47;6.70;;;2.20;;
43226;SDS011;28839;52.404;9.808;2022-08-11T16:08:01;4.80;;;1.92;;
43226;SDS011;28839;52.404;9.808;2022-08-11T16:14:57;3.55;;;2.08;;
43226;SDS011;28839;52.404;9.808;2022-08-11T16:22:13;7.72;;;2.08;;
43226;SDS011;28839;52.404;9.808;2022-08-11T16:29:19;3.03;;;1.87;;
43226;SDS011;28839;52.404;9.808;2022-08-11T16:36:16;4.10;;;2.12;;
43226;SDS011;28839;52.404;9.808;2022-08-11T16:43:31;3.92;;;2.42;;
43226;SDS011;28839;52.404;9.808;2022-08-11T16:50:45;3.45;;;2.30;;
43226;SDS011;28839;52.404;9.808;2022-08-11T16:57:40;9.73;;;2.45;;
43226;SDS011;28839;52.404;9.808;2022-08-11T17:04:53;8.30;;;2.50;;
43226;SDS011;28839;52.404;9.808;2022-08-11T17:12:07;3.78;;;2.20;;
43226;SDS011;28839;52.404;9.808;2022-08-11T17:19:23;4.95;;;2.47;;
43226;SDS011;28839;52.404;9.808;2022-08-11T17:26:23;3.20;;;2.05;;
43226;SDS011;28839;52.404;9.808;2022-08-11T17:33:40;6.03;;;2.47;;
43226;SDS011;28839;52.404;9.808;2022-08-11T17:48:16;107.40;;;6.43;;
43226;SDS011;28839;52.404;9.808;2022-08-11T17:55:17;4.70;;;2.10;;
43226;SDS011;28839;52.404;9.808;2022-08-11T18:02:32;4.20;;;2.07;;
43226;SDS011;28839;52.404;9.808;2022-08-11T18:09:47;5.95;;;2.30;;
43226;SDS011;28839;52.404;9.808;2022-08-11T18:16:58;6.97;;;2.20;;
43226;SDS011;28839;52.404;9.808;2022-08-11T18:24:11;6.18;;;2.28;;
43226;SDS011;28839;52.404;9.808;2022-08-11T18:31:25;4.45;;;2.20;;
43226;SDS011;28839;52.404;9.808;2022-08-11T18:38:38;4.15;;;2.05;;
43226;SDS011;28839;52.404;9.808;2022-08-11T18:45:52;6.10;;;1.98;;
43226;SDS011;28839;52.404;9.808;2022-08-11T18:53:12;8.88;;;2.35;;
43226;SDS011;28839;52.404;9.808;2022-08-11T19:00:24;8.30;;;2.75;;
43226;SDS011;28839;52.404;9.808;2022-08-11T19:07:40;8.07;;;2.30;;
43226;SDS011;28839;52.404;9.808;2022-08-11T19:14:56;6.37;;;2.25;;
43226;SDS011;28839;52.404;9.808;2022-08-11T19:22:09;7.12;;;2.53;;
43226;SDS011;28839;52.404;9.808;2022-08-11T19:29:21;6.60;;;2.65;;
43226;SDS011;28839;52.404;9.808;2022-08-11T19:43:48;8.82;;;2.30;;
43226;SDS011;28839;52.404;9.808;2022-08-11T19:51:03;9.60;;;2.22;;
43226;SDS011;28839;52.404;9.808;2022-08-11T19:58:16;6.97;;;2.17;;
43226;SDS011;28839;52.404;9.808;2022-08-11T20:05:28;4.07;;;2.50;;
43226;SDS011;28839;52.404;9.808;2022-08-11T20:12:41;6.07;;;2.83;;
43226;SDS011;28839;52.404;9.808;2022-08-11T20:19:54;5.07;;;2.50;;
43226;SDS011;28839;52.404;9.808;2022-08-11T20:27:09;5.65;;;3.03;;
43226;SDS011;28839;52.404;9.808;2022-08-11T20:34:22;4.53;;;2.08;;
43226;SDS011;28839;52.404;9.808;2022-08-11T20:41:35;3.75;;;2.58;;
43226;SDS011;28839;52.404;9.808;2022-08-11T20:48:49;4.55;;;2.37;;
43226;SDS011;28839;52.404;9.808;2022-08-11T20:56:03;4.70;;;2.50;;
43226;SDS011;28839;52.404;9.808;2022-08-11T21:03:17;3.73;;;2.40;;
43226;SDS011;28839;52.404;9.808;2022-08-11T21:10:30;5.05;;;2.78;;
43226;SDS011;28839;52.404;9.808;2022-08-11T21:17:43;5.93;;;2.50;;
43226;SDS011;28839;52.404;9.808;2022-08-11T21:24:58;5.40;;;2.53;;
43226;SDS011;28839;52.404;9.808;2022-08-11T21:32:11;8.77;;;2.65;;
43226;SDS011;28839;52.404;9.808;2022-08-11T21:39:24;4.33;;;2.67;;
43226;SDS011;28839;52.404;9.808;2022-08-11T21:46:38;8.13;;;2.42;;
43226;SDS011;28839;52.404;9.808;2022-08-11T21:53:54;3.15;;;2.60;;
43226;SDS011;28839;52.404;9.808;2022-08-11T22:01:07;6.40;;;2.45;;
43226;SDS011;28839;52.404;9.808;2022-08-11T22:08:21;10.80;;;2.70;;
43226;SDS011;28839;52.404;9.808;2022-08-11T22:15:32;3.45;;;2.30;;
43226;SDS011;28839;52.404;9.808;2022-08-11T22:22:44;12.52;;;2.40;;
43226;SDS011;28839;52.404;9.808;2022-08-11T22:29:59;3.15;;;2.42;;
43226;SDS011;28839;52.404;9.808;2022-08-11T22:37:10;4.75;;;2.45;;
43226;SDS011;28839;52.404;9.808;2022-08-11T22:44:23;3.22;;;2.37;;
43226;SDS011;28839;52.404;9.808;2022-08-11T22:51:35;7.20;;;2.30;;
43226;SDS011;28839;52.404;9.808;2022-08-11T22:58:48;9.10;;;2.37;;
43226;SDS011;28839;52.404;9.808;2022-08-11T23:06:01;4.75;;;2.22;;
43226;SDS011;28839;52.404;9.808;2022-08-11T23:13:15;3.72;;;2.12;;
43226;SDS011;28839;52.404;9.808;2022-08-11T23:20:27;11.38;;;3.08;;
43226;SDS011;28839;52.404;9.808;2022-08-11T23:27:39;4.35;;;2.22;;
43226;SDS011;28839;52.404;9.808;2022-08-11T23:34:53;4.45;;;2.50;;
43226;SDS011;28839;52.404;9.808;2022-08-11T23:42:09;6.20;;;2.62;;
43226;SDS011;28839;52.404;9.808;2022-08-11T23:49:20;5.22;;;2.28;;
43226;SDS011;28839;52.404;9.808;2022-08-11T23:56:33;4.40;;;3.08;;
